sensor_id;sensor_type;location;lat;lon;timestamp;P1;durP1;ratioP1;P2;durP2;ratioP2
2464;SDS011;1244;54.326;10.074;2023-03-26T00:01:28;0.20;;;0.20;;
2464;SDS011;1244;54.326;10.074;2023-03-26T00:03:57;0.30;;;0.30;;
2464;SDS011;1244;54.326;10.074;2023-03-26T00:06:27;0.30;;;0.30;;
2464;SDS011;1244;54.326;10.074;2023-03-26T00:08:55;0.20;;;0.20;;
2464;SDS011;1244;54.326;10.074;2023-03-26T00:11:22;0.20;;;0.20;;
2464;SDS011;1244;54.326;10.074;2023-03-26T00:13:49;0.20;;;0.20;;
2464;SDS011;1244;54.326;10.074;2023-03-26T00:16:17;0.20;;;0.20;;
2464;SDS011;1244;54.326;10.074;2023-03-26T00:18:43;0.20;;;0.20;;
2464;SDS011;1244;54.326;10.074;2023-03-26T00:21:11;0.20;;;0.20;;
2464;SDS011;1244;54.326;10.074;2023-03-26T00:23:39;0.30;;;0.30;;
2464;SDS011;1244;54.326;10.074;2023-03-26T00:26:05;0.20;;;0.20;;
2464;SDS011;1244;54.326;10.074;2023-03-26T00:28:34;0.30;;;0.30;;
2464;SDS011;1244;54.326;10.074;2023-03-26T00:31:04;0.20;;;0.20;;
2464;SDS011;1244;54.326;10.074;2023-03-26T00:33:31;0.30;;;0.30;;
2464;SDS011;1244;54.326;10.074;2023-03-26T00:36:03;0.20;;;0.20;;
2464;SDS011;1244;54.326;10.074;2023-03-26T00:38:31;0.20;;;0.20;;
2464;SDS011;1244;54.326;10.074;2023-03-26T00:41:03;0.20;;;0.20;;
2464;SDS011;1244;54.326;10.074;2023-03-26T00:43:30;0.20;;;0.20;;
2464;SDS011;1244;54.326;10.074;2023-03-26T00:45:58;0.30;;;0.30;;
2464;SDS011;1244;54.326;10.074;2023-03-26T00:48:24;0.20;;;0.20;;
2464;SDS011;1244;54.326;10.074;2023-03-26T00:50:53;0.20;;;0.20;;
2464;SDS011;1244;54.326;10.074;2023-03-26T00:53:20;0.20;;;0.20;;
2464;SDS011;1244;54.326;10.074;2023-03-26T00:55:46;0.20;;;0.20;;
2464;SDS011;1244;54.326;10.074;2023-03-26T00:58:12;0.20;;;0.20;;
2464;SDS011;1244;54.326;10.074;2023-03-26T01:00:42;0.30;;;0.30;;
2464;SDS011;1244;54.326;10.074;2023-03-26T01:03:23;0.30;;;0.30;;
2464;SDS011;1244;54.326;10.074;2023-03-26T01:06:03;0.20;;;0.20;;
2464;SDS011;1244;54.326;10.074;2023-03-26T01:08:39;0.20;;;0.20;;
2464;SDS011;1244;54.326;10.074;2023-03-26T01:11:16;0.20;;;0.20;;
2464;SDS011;1244;54.326;10.074;2023-03-26T01:13:48;0.20;;;0.20;;
2464;SDS011;1244;54.326;10.074;2023-03-26T01:18:57;0.20;;;0.20;;
2464;SDS011;1244;54.326;10.074;2023-03-26T01:21:25;0.20;;;0.20;;
2464;SDS011;1244;54.326;10.074;2023-03-26T01:23:56;0.30;;;0.30;;
2464;SDS011;1244;54.326;10.074;2023-03-26T01:29:02;0.30;;;0.30;;
2464;SDS011;1244;54.326;10.074;2023-03-26T01:31:29;0.30;;;0.30;;
2464;SDS011;1244;54.326;10.074;2023-03-26T01:34:04;0.20;;;0.20;;
2464;SDS011;1244;54.326;10.074;2023-03-26T01:36:52;0.30;;;0.30;;
2464;SDS011;1244;54.326;10.074;2023-03-26T01:39:49;0.30;;;0.30;;
2464;SDS011;1244;54.326;10.074;2023-03-26T01:42:30;0.30;;;0.30;;
2464;SDS011;1244;54.326;10.074;2023-03-26T01:45:09;0.30;;;0.30;;
2464;SDS011;1244;54.326;10.074;2023-03-26T01:47:46;0.30;;;0.30;;
2464;SDS011;1244;54.326;10.074;2023-03-26T01:50:13;0.30;;;0.30;;
2464;SDS011;1244;54.326;10.074;2023-03-26T01:52:39;0.20;;;0.20;;
2464;SDS011;1244;54.326;10.074;2023-03-26T01:55:04;0.20;;;0.20;;
2464;SDS011;1244;54.326;10.074;2023-03-26T01:57:39;0.30;;;0.30;;
2464;SDS011;1244;54.326;10.074;2023-03-26T02:05:48;0.20;;;0.20;;
2464;SDS011;1244;54.326;10.074;2023-03-26T02:08:26;0.30;;;0.30;;
2464;SDS011;1244;54.326;10.074;2023-03-26T02:10:59;0.30;;;0.30;;
2464;SDS011;1244;54.326;10.074;2023-03-26T02:13:28;0.20;;;0.20;;
2464;SDS011;1244;54.326;10.074;2023-03-26T02:16:04;0.20;;;0.20;;
2464;SDS011;1244;54.326;10.074;2023-03-26T02:18:32;0.20;;;0.20;;
2464;SDS011;1244;54.326;10.074;2023-03-26T02:21:04;0.20;;;0.20;;
2464;SDS011;1244;54.326;10.074;2023-03-26T02:23:31;0.20;;;0.20;;
2464;SDS011;1244;54.326;10.074;2023-03-26T02:26:00;0.20;;;0.20;;
2464;SDS011;1244;54.326;10.074;2023-03-26T02:28:33;0.20;;;0.20;;
2464;SDS011;1244;54.326;10.074;2023-03-26T02:30:58;0.20;;;0.20;;
2464;SDS011;1244;54.326;10.074;2023-03-26T02:33:26;0.20;;;0.20;;
2464;SDS011;1244;54.326;10.074;2023-03-26T02:35:52;0.20;;;0.20;;
2464;SDS011;1244;54.326;10.074;2023-03-26T02:38:18;0.20;;;0.20;;
2464;SDS011;1244;54.326;10.074;2023-03-26T02:40:44;0.30;;;0.30;;
2464;SDS011;1244;54.326;10.074;2023-03-26T02:43:10;0.30;;;0.30;;
2464;SDS011;1244;54.326;10.074;2023-03-26T02:45:35;0.30;;;0.30;;
2464;SDS011;1244;54.326;10.074;2023-03-26T02:48:01;0.23;;;0.23;;
2464;SDS011;1244;54.326;10.074;2023-03-26T02:50:26;0.30;;;0.30;;
2464;SDS011;1244;54.326;10.074;2023-03-26T02:52:52;0.30;;;0.30;;
2464;SDS011;1244;54.326;10.074;2023-03-26T02:55:17;0.20;;;0.20;;
2464;SDS011;1244;54.326;10.074;2023-03-26T02:57:43;0.30;;;0.30;;
2464;SDS011;1244;54.326;10.074;2023-03-26T03:00:09;0.30;;;0.30;;
2464;SDS011;1244;54.326;10.074;2023-03-26T03:02:38;0.30;;;0.30;;
2464;SDS011;1244;54.326;10.074;2023-03-26T03:05:03;0.30;;;0.30;;
2464;SDS011;1244;54.326;10.074;2023-03-26T03:07:30;0.20;;;0.20;;
2464;SDS011;1244;54.326;10.074;2023-03-26T03:09:55;0.30;;;0.30;;
2464;SDS011;1244;54.326;10.074;2023-03-26T03:12:26;0.30;;;0.30;;
2464;SDS011;1244;54.326;10.074;2023-03-26T03:14:52;0.30;;;0.30;;
2464;SDS011;1244;54.326;10.074;2023-03-26T03:17:17;0.23;;;0.23;;
2464;SDS011;1244;54.326;10.074;2023-03-26T03:19:45;0.30;;;0.30;;
2464;SDS011;1244;54.326;10.074;2023-03-26T03:22:10;0.30;;;0.30;;
2464;SDS011;1244;54.326;10.074;2023-03-26T03:24:36;0.30;;;0.30;;
2464;SDS011;1244;54.326;10.074;2023-03-26T03:27:02;0.30;;;0.30;;
2464;SDS011;1244;54.326;10.074;2023-03-26T03:29:28;0.30;;;0.30;;
2464;SDS011;1244;54.326;10.074;2023-03-26T03:31:54;0.30;;;0.30;;
2464;SDS011;1244;54.326;10.074;2023-03-26T03:34:19;0.30;;;0.30;;
2464;SDS011;1244;54.326;10.074;2023-03-26T03:36:45;0.30;;;0.30;;
2464;SDS011;1244;54.326;10.074;2023-03-26T03:39:12;0.30;;;0.30;;
2464;SDS011;1244;54.326;10.074;2023-03-26T03:41:40;0.30;;;0.30;;
2464;SDS011;1244;54.326;10.074;2023-03-26T03:44:06;0.30;;;0.30;;
2464;SDS011;1244;54.326;10.074;2023-03-26T03:46:31;0.30;;;0.30;;
2464;SDS011;1244;54.326;10.074;2023-03-26T03:48:57;0.30;;;0.30;;
2464;SDS011;1244;54.326;10.074;2023-03-26T03:51:23;0.30;;;0.30;;
2464;SDS011;1244;54.326;10.074;2023-03-26T03:53:48;0.30;;;0.30;;
2464;SDS011;1244;54.326;10.074;2023-03-26T03:56:14;0.30;;;0.30;;
2464;SDS011;1244;54.326;10.074;2023-03-26T03:58:43;0.30;;;0.30;;
2464;SDS011;1244;54.326;10.074;2023-03-26T04:01:10;0.30;;;0.30;;
2464;SDS011;1244;54.326;10.074;2023-03-26T04:03:37;0.30;;;0.30;;
2464;SDS011;1244;54.326;10.074;2023-03-26T04:06:04;0.30;;;0.30;;
2464;SDS011;1244;54.326;10.074;2023-03-26T04:08:31;0.30;;;0.30;;
2464;SDS011;1244;54.326;10.074;2023-03-26T04:10:57;0.30;;;0.30;;
2464;SDS011;1244;54.326;10.074;2023-03-26T04:13:24;0.30;;;0.30;;
2464;SDS011;1244;54.326;10.074;2023-03-26T04:15:49;0.30;;;0.30;;
2464;SDS011;1244;54.326;10.074;2023-03-26T04:18:15;0.30;;;0.30;;
2464;SDS011;1244;54.326;10.074;2023-03-26T04:20:41;0.30;;;0.30;;
2464;SDS011;1244;54.326;10.074;2023-03-26T04:23:12;0.30;;;0.30;;
2464;SDS011;1244;54.326;10.074;2023-03-26T04:25:42;0.30;;;0.30;;
2464;SDS011;1244;54.326;10.074;2023-03-26T04:28:12;0.30;;;0.30;;
2464;SDS011;1244;54.326;10.074;2023-03-26T04:30:50;0.30;;;0.30;;
2464;SDS011;1244;54.326;10.074;2023-03-26T04:33:17;0.30;;;0.30;;
2464;SDS011;1244;54.326;10.074;2023-03-26T04:35:45;0.27;;;0.27;;
2464;SDS011;1244;54.326;10.074;2023-03-26T04:38:12;0.30;;;0.30;;
2464;SDS011;1244;54.326;10.074;2023-03-26T04:40:41;0.30;;;0.30;;
2464;SDS011;1244;54.326;10.074;2023-03-26T04:43:12;0.30;;;0.30;;
2464;SDS011;1244;54.326;10.074;2023-03-26T04:45:41;0.40;;;0.40;;
2464;SDS011;1244;54.326;10.074;2023-03-26T04:48:09;0.30;;;0.30;;
2464;SDS011;1244;54.326;10.074;2023-03-26T04:50:38;0.27;;;0.27;;
2464;SDS011;1244;54.326;10.074;2023-03-26T04:53:09;0.30;;;0.30;;
2464;SDS011;1244;54.326;10.074;2023-03-26T04:55:49;0.30;;;0.30;;
2464;SDS011;1244;54.326;10.074;2023-03-26T04:58:29;0.40;;;0.40;;
2464;SDS011;1244;54.326;10.074;2023-03-26T05:00:58;0.30;;;0.30;;
2464;SDS011;1244;54.326;10.074;2023-03-26T05:03:25;0.30;;;0.30;;
2464;SDS011;1244;54.326;10.074;2023-03-26T05:05:57;0.30;;;0.30;;
2464;SDS011;1244;54.326;10.074;2023-03-26T05:08:23;0.30;;;0.30;;
2464;SDS011;1244;54.326;10.074;2023-03-26T05:10:50;0.30;;;0.30;;
2464;SDS011;1244;54.326;10.074;2023-03-26T05:13:16;0.30;;;0.30;;
2464;SDS011;1244;54.326;10.074;2023-03-26T05:15:41;0.30;;;0.30;;
2464;SDS011;1244;54.326;10.074;2023-03-26T05:18:07;0.30;;;0.30;;
2464;SDS011;1244;54.326;10.074;2023-03-26T05:20:33;0.30;;;0.30;;
2464;SDS011;1244;54.326;10.074;2023-03-26T05:22:58;0.30;;;0.30;;
2464;SDS011;1244;54.326;10.074;2023-03-26T05:25:24;0.30;;;0.30;;
2464;SDS011;1244;54.326;10.074;2023-03-26T05:27:49;0.30;;;0.30;;
2464;SDS011;1244;54.326;10.074;2023-03-26T05:30:16;0.30;;;0.30;;
2464;SDS011;1244;54.326;10.074;2023-03-26T05:32:42;0.30;;;0.30;;
2464;SDS011;1244;54.326;10.074;2023-03-26T05:35:08;0.40;;;0.40;;
2464;SDS011;1244;54.326;10.074;2023-03-26T05:37:40;0.30;;;0.30;;
2464;SDS011;1244;54.326;10.074;2023-03-26T05:40:16;0.30;;;0.30;;
2464;SDS011;1244;54.326;10.074;2023-03-26T05:42:42;0.40;;;0.40;;
2464;SDS011;1244;54.326;10.074;2023-03-26T05:45:12;0.30;;;0.30;;
2464;SDS011;1244;54.326;10.074;2023-03-26T05:47:41;0.30;;;0.30;;
2464;SDS011;1244;54.326;10.074;2023-03-26T05:50:08;0.30;;;0.30;;
2464;SDS011;1244;54.326;10.074;2023-03-26T05:52:36;0.30;;;0.30;;
2464;SDS011;1244;54.326;10.074;2023-03-26T05:55:03;0.23;;;0.23;;
2464;SDS011;1244;54.326;10.074;2023-03-26T05:57:29;0.40;;;0.40;;
2464;SDS011;1244;54.326;10.074;2023-03-26T05:59:55;0.30;;;0.30;;
2464;SDS011;1244;54.326;10.074;2023-03-26T06:02:21;0.30;;;0.30;;
2464;SDS011;1244;54.326;10.074;2023-03-26T06:04:47;0.30;;;0.30;;
2464;SDS011;1244;54.326;10.074;2023-03-26T06:07:14;0.40;;;0.40;;
2464;SDS011;1244;54.326;10.074;2023-03-26T06:09:41;0.30;;;0.30;;
2464;SDS011;1244;54.326;10.074;2023-03-26T06:12:09;0.30;;;0.30;;
2464;SDS011;1244;54.326;10.074;2023-03-26T06:14:35;0.30;;;0.30;;
2464;SDS011;1244;54.326;10.074;2023-03-26T06:17:01;0.30;;;0.30;;
2464;SDS011;1244;54.326;10.074;2023-03-26T06:19:27;0.30;;;0.30;;
2464;SDS011;1244;54.326;10.074;2023-03-26T06:21:52;0.30;;;0.30;;
2464;SDS011;1244;54.326;10.074;2023-03-26T06:24:18;0.30;;;0.30;;
2464;SDS011;1244;54.326;10.074;2023-03-26T06:26:44;0.40;;;0.40;;
2464;SDS011;1244;54.326;10.074;2023-03-26T06:29:11;0.30;;;0.30;;
2464;SDS011;1244;54.326;10.074;2023-03-26T06:31:37;0.40;;;0.40;;
2464;SDS011;1244;54.326;10.074;2023-03-26T06:34:04;0.30;;;0.30;;
2464;SDS011;1244;54.326;10.074;2023-03-26T06:36:30;0.30;;;0.30;;
2464;SDS011;1244;54.326;10.074;2023-03-26T06:38:55;0.20;;;0.20;;
2464;SDS011;1244;54.326;10.074;2023-03-26T06:41:21;0.20;;;0.20;;
2464;SDS011;1244;54.326;10.074;2023-03-26T06:43:48;0.40;;;0.40;;
2464;SDS011;1244;54.326;10.074;2023-03-26T06:48:49;0.30;;;0.30;;
2464;SDS011;1244;54.326;10.074;2023-03-26T06:51:17;0.30;;;0.30;;
2464;SDS011;1244;54.326;10.074;2023-03-26T06:53:44;0.30;;;0.30;;
2464;SDS011;1244;54.326;10.074;2023-03-26T06:56:14;0.30;;;0.30;;
2464;SDS011;1244;54.326;10.074;2023-03-26T06:58:40;0.30;;;0.30;;
2464;SDS011;1244;54.326;10.074;2023-03-26T07:01:06;0.30;;;0.30;;
2464;SDS011;1244;54.326;10.074;2023-03-26T07:03:32;0.30;;;0.30;;
2464;SDS011;1244;54.326;10.074;2023-03-26T07:05:58;0.30;;;0.30;;
2464;SDS011;1244;54.326;10.074;2023-03-26T07:08:24;0.30;;;0.30;;
2464;SDS011;1244;54.326;10.074;2023-03-26T07:10:50;0.30;;;0.30;;
2464;SDS011;1244;54.326;10.074;2023-03-26T07:13:16;0.30;;;0.30;;
2464;SDS011;1244;54.326;10.074;2023-03-26T07:15:42;0.30;;;0.30;;
2464;SDS011;1244;54.326;10.074;2023-03-26T07:18:14;0.30;;;0.30;;
2464;SDS011;1244;54.326;10.074;2023-03-26T07:20:56;0.30;;;0.30;;
2464;SDS011;1244;54.326;10.074;2023-03-26T07:23:22;0.20;;;0.20;;
2464;SDS011;1244;54.326;10.074;2023-03-26T07:25:48;0.30;;;0.30;;
2464;SDS011;1244;54.326;10.074;2023-03-26T07:36:47;0.20;;;0.20;;
2464;SDS011;1244;54.326;10.074;2023-03-26T07:44:31;0.30;;;0.30;;
2464;SDS011;1244;54.326;10.074;2023-03-26T07:46:59;0.30;;;0.30;;
2464;SDS011;1244;54.326;10.074;2023-03-26T07:49:28;0.30;;;0.30;;
2464;SDS011;1244;54.326;10.074;2023-03-26T07:51:56;0.30;;;0.30;;
2464;SDS011;1244;54.326;10.074;2023-03-26T07:54:25;0.30;;;0.30;;
2464;SDS011;1244;54.326;10.074;2023-03-26T07:56:58;0.30;;;0.30;;
2464;SDS011;1244;54.326;10.074;2023-03-26T07:59:34;0.20;;;0.20;;
2464;SDS011;1244;54.326;10.074;2023-03-26T08:05:04;0.20;;;0.20;;
2464;SDS011;1244;54.326;10.074;2023-03-26T08:13:46;0.23;;;0.23;;
2464;SDS011;1244;54.326;10.074;2023-03-26T08:16:21;0.20;;;0.20;;
2464;SDS011;1244;54.326;10.074;2023-03-26T08:18:51;0.20;;;0.20;;
2464;SDS011;1244;54.326;10.074;2023-03-26T08:21:22;0.30;;;0.30;;
2464;SDS011;1244;54.326;10.074;2023-03-26T08:32:19;0.20;;;0.20;;
2464;SDS011;1244;54.326;10.074;2023-03-26T08:34:45;0.20;;;0.20;;
2464;SDS011;1244;54.326;10.074;2023-03-26T08:37:12;0.20;;;0.20;;
2464;SDS011;1244;54.326;10.074;2023-03-26T08:39:40;0.20;;;0.20;;
2464;SDS011;1244;54.326;10.074;2023-03-26T08:42:41;0.20;;;0.20;;
2464;SDS011;1244;54.326;10.074;2023-03-26T08:48:26;0.20;;;0.20;;
2464;SDS011;1244;54.326;10.074;2023-03-26T08:57:02;0.30;;;0.30;;
2464;SDS011;1244;54.326;10.074;2023-03-26T08:59:48;0.30;;;0.30;;
2464;SDS011;1244;54.326;10.074;2023-03-26T09:05:34;0.20;;;0.20;;
2464;SDS011;1244;54.326;10.074;2023-03-26T09:11:05;0.30;;;0.30;;
2464;SDS011;1244;54.326;10.074;2023-03-26T09:23:24;0.20;;;0.20;;
2464;SDS011;1244;54.326;10.074;2023-03-26T09:29:06;0.20;;;0.20;;
2464;SDS011;1244;54.326;10.074;2023-03-26T09:43:55;0.10;;;0.10;;
2464;SDS011;1244;54.326;10.074;2023-03-26T09:46:45;0.10;;;0.10;;
2464;SDS011;1244;54.326;10.074;2023-03-26T09:57:44;0.10;;;0.10;;
2464;SDS011;1244;54.326;10.074;2023-03-26T10:03:34;0.10;;;0.10;;
2464;SDS011;1244;54.326;10.074;2023-03-26T10:06:31;0.10;;;0.10;;
2464;SDS011;1244;54.326;10.074;2023-03-26T10:12:31;0.10;;;0.10;;
2464;SDS011;1244;54.326;10.074;2023-03-26T10:20:52;0.00;;;0.00;;
2464;SDS011;1244;54.326;10.074;2023-03-26T10:32:15;0.00;;;0.00;;
2464;SDS011;1244;54.326;10.074;2023-03-26T10:46:08;0.00;;;0.00;;
2464;SDS011;1244;54.326;10.074;2023-03-26T10:53:59;0.00;;;0.00;;
2464;SDS011;1244;54.326;10.074;2023-03-26T10:56:33;0.00;;;0.00;;
2464;SDS011;1244;54.326;10.074;2023-03-26T10:59:04;0.00;;;0.00;;
2464;SDS011;1244;54.326;10.074;2023-03-26T11:01:35;0.00;;;0.00;;
2464;SDS011;1244;54.326;10.074;2023-03-26T11:04:31;0.00;;;0.00;;
2464;SDS011;1244;54.326;10.074;2023-03-26T11:06:59;0.00;;;0.00;;
2464;SDS011;1244;54.326;10.074;2023-03-26T11:12:13;0.00;;;0.00;;
2464;SDS011;1244;54.326;10.074;2023-03-26T11:15:21;0.00;;;0.00;;
2464;SDS011;1244;54.326;10.074;2023-03-26T11:20:37;0.00;;;0.00;;
2464;SDS011;1244;54.326;10.074;2023-03-26T11:23:07;0.00;;;0.00;;
2464;SDS011;1244;54.326;10.074;2023-03-26T11:30:36;0.00;;;0.00;;
2464;SDS011;1244;54.326;10.074;2023-03-26T11:33:15;0.00;;;0.00;;
2464;SDS011;1244;54.326;10.074;2023-03-26T11:35:45;0.00;;;0.00;;
2464;SDS011;1244;54.326;10.074;2023-03-26T11:38:27;0.00;;;0.00;;
2464;SDS011;1244;54.326;10.074;2023-03-26T11:40:56;0.00;;;0.00;;
2464;SDS011;1244;54.326;10.074;2023-03-26T11:43:34;0.00;;;0.00;;
2464;SDS011;1244;54.326;10.074;2023-03-26T11:46:05;0.00;;;0.00;;
2464;SDS011;1244;54.326;10.074;2023-03-26T11:51:19;0.00;;;0.00;;
2464;SDS011;1244;54.326;10.074;2023-03-26T11:53:50;0.00;;;0.00;;
2464;SDS011;1244;54.326;10.074;2023-03-26T11:58:54;0.00;;;0.00;;
2464;SDS011;1244;54.326;10.074;2023-03-26T12:01:25;0.00;;;0.00;;
2464;SDS011;1244;54.326;10.074;2023-03-26T12:04:04;0.00;;;0.00;;
2464;SDS011;1244;54.326;10.074;2023-03-26T12:06:31;0.00;;;0.00;;
2464;SDS011;1244;54.326;10.074;2023-03-26T12:08:57;0.00;;;0.00;;
2464;SDS011;1244;54.326;10.074;2023-03-26T12:11:26;0.00;;;0.00;;
2464;SDS011;1244;54.326;10.074;2023-03-26T12:13:58;0.00;;;0.00;;
2464;SDS011;1244;54.326;10.074;2023-03-26T12:16:25;0.00;;;0.00;;
2464;SDS011;1244;54.326;10.074;2023-03-26T12:19:02;0.00;;;0.00;;
2464;SDS011;1244;54.326;10.074;2023-03-26T12:21:30;0.00;;;0.00;;
2464;SDS011;1244;54.326;10.074;2023-03-26T12:27:00;0.00;;;0.00;;
2464;SDS011;1244;54.326;10.074;2023-03-26T12:29:51;0.00;;;0.00;;
2464;SDS011;1244;54.326;10.074;2023-03-26T12:32:24;0.00;;;0.00;;
2464;SDS011;1244;54.326;10.074;2023-03-26T12:34:56;0.00;;;0.00;;
2464;SDS011;1244;54.326;10.074;2023-03-26T12:37:38;0.00;;;0.00;;
2464;SDS011;1244;54.326;10.074;2023-03-26T12:43:05;0.00;;;0.00;;
2464;SDS011;1244;54.326;10.074;2023-03-26T12:45:55;0.00;;;0.00;;
2464;SDS011;1244;54.326;10.074;2023-03-26T12:48:31;0.00;;;0.00;;
2464;SDS011;1244;54.326;10.074;2023-03-26T12:56:27;0.00;;;0.00;;
2464;SDS011;1244;54.326;10.074;2023-03-26T12:59:04;0.00;;;0.00;;
2464;SDS011;1244;54.326;10.074;2023-03-26T13:04:20;0.00;;;0.00;;
2464;SDS011;1244;54.326;10.074;2023-03-26T13:12:01;0.00;;;0.00;;
2464;SDS011;1244;54.326;10.074;2023-03-26T13:22:14;0.00;;;0.00;;
2464;SDS011;1244;54.326;10.074;2023-03-26T13:25:17;0.00;;;0.00;;
2464;SDS011;1244;54.326;10.074;2023-03-26T13:30:20;0.00;;;0.00;;
2464;SDS011;1244;54.326;10.074;2023-03-26T13:33:14;0.00;;;0.00;;
2464;SDS011;1244;54.326;10.074;2023-03-26T13:35:57;0.00;;;0.00;;
2464;SDS011;1244;54.326;10.074;2023-03-26T13:41:16;0.00;;;0.00;;
2464;SDS011;1244;54.326;10.074;2023-03-26T13:46:50;0.00;;;0.00;;
2464;SDS011;1244;54.326;10.074;2023-03-26T13:49:25;0.00;;;0.00;;
2464;SDS011;1244;54.326;10.074;2023-03-26T13:52:36;0.00;;;0.00;;
2464;SDS011;1244;54.326;10.074;2023-03-26T13:55:29;0.00;;;0.00;;
2464;SDS011;1244;54.326;10.074;2023-03-26T14:00:51;0.00;;;0.00;;
2464;SDS011;1244;54.326;10.074;2023-03-26T14:03:45;0.00;;;0.00;;
2464;SDS011;1244;54.326;10.074;2023-03-26T14:09:13;0.00;;;0.00;;
2464;SDS011;1244;54.326;10.074;2023-03-26T14:11:49;0.00;;;0.00;;
2464;SDS011;1244;54.326;10.074;2023-03-26T14:17:13;0.00;;;0.00;;
2464;SDS011;1244;54.326;10.074;2023-03-26T14:22:40;0.00;;;0.00;;
2464;SDS011;1244;54.326;10.074;2023-03-26T14:31:15;0.00;;;0.00;;
2464;SDS011;1244;54.326;10.074;2023-03-26T14:40:06;0.00;;;0.00;;
2464;SDS011;1244;54.326;10.074;2023-03-26T14:42:57;0.00;;;0.00;;
2464;SDS011;1244;54.326;10.074;2023-03-26T14:51:13;0.00;;;0.00;;
2464;SDS011;1244;54.326;10.074;2023-03-26T14:54:00;0.00;;;0.00;;
2464;SDS011;1244;54.326;10.074;2023-03-26T14:56:51;0.00;;;0.00;;
2464;SDS011;1244;54.326;10.074;2023-03-26T14:59:56;0.00;;;0.00;;
2464;SDS011;1244;54.326;10.074;2023-03-26T15:14:39;0.00;;;0.00;;
2464;SDS011;1244;54.326;10.074;2023-03-26T15:17:16;0.03;;;0.03;;
2464;SDS011;1244;54.326;10.074;2023-03-26T15:40:42;0.10;;;0.10;;
2464;SDS011;1244;54.326;10.074;2023-03-26T15:43:27;0.03;;;0.03;;
2464;SDS011;1244;54.326;10.074;2023-03-26T15:46:30;0.10;;;0.10;;
2464;SDS011;1244;54.326;10.074;2023-03-26T15:54:28;0.00;;;0.00;;
2464;SDS011;1244;54.326;10.074;2023-03-26T15:57:10;0.07;;;0.07;;
2464;SDS011;1244;54.326;10.074;2023-03-26T16:10:53;0.10;;;0.10;;
2464;SDS011;1244;54.326;10.074;2023-03-26T16:18:32;0.10;;;0.10;;
2464;SDS011;1244;54.326;10.074;2023-03-26T16:23:52;0.07;;;0.07;;
2464;SDS011;1244;54.326;10.074;2023-03-26T16:34:36;0.10;;;0.10;;
2464;SDS011;1244;54.326;10.074;2023-03-26T16:45:32;0.10;;;0.10;;
2464;SDS011;1244;54.326;10.074;2023-03-26T16:48:16;0.10;;;0.10;;
2464;SDS011;1244;54.326;10.074;2023-03-26T16:53:59;0.10;;;0.10;;
2464;SDS011;1244;54.326;10.074;2023-03-26T16:59:52;0.10;;;0.10;;
2464;SDS011;1244;54.326;10.074;2023-03-26T17:11:17;0.10;;;0.10;;
2464;SDS011;1244;54.326;10.074;2023-03-26T17:22:14;0.10;;;0.10;;
2464;SDS011;1244;54.326;10.074;2023-03-26T17:24:52;0.10;;;0.10;;
2464;SDS011;1244;54.326;10.074;2023-03-26T17:35:39;0.10;;;0.10;;
2464;SDS011;1244;54.326;10.074;2023-03-26T17:40:57;0.10;;;0.10;;
2464;SDS011;1244;54.326;10.074;2023-03-26T17:54:45;0.10;;;0.10;;
2464;SDS011;1244;54.326;10.074;2023-03-26T18:00:13;0.17;;;0.17;;
2464;SDS011;1244;54.326;10.074;2023-03-26T18:02:47;0.13;;;0.13;;
2464;SDS011;1244;54.326;10.074;2023-03-26T18:05:17;0.20;;;0.20;;
2464;SDS011;1244;54.326;10.074;2023-03-26T18:11:40;0.20;;;0.20;;
2464;SDS011;1244;54.326;10.074;2023-03-26T18:17:20;0.10;;;0.10;;
2464;SDS011;1244;54.326;10.074;2023-03-26T18:19:51;0.20;;;0.20;;
2464;SDS011;1244;54.326;10.074;2023-03-26T18:22:20;0.20;;;0.20;;
2464;SDS011;1244;54.326;10.074;2023-03-26T18:24:52;0.13;;;0.13;;
2464;SDS011;1244;54.326;10.074;2023-03-26T18:27:24;0.20;;;0.20;;
2464;SDS011;1244;54.326;10.074;2023-03-26T18:32:24;0.17;;;0.17;;
2464;SDS011;1244;54.326;10.074;2023-03-26T18:34:59;0.20;;;0.20;;
2464;SDS011;1244;54.326;10.074;2023-03-26T18:37:37;0.10;;;0.10;;
2464;SDS011;1244;54.326;10.074;2023-03-26T18:40:07;0.20;;;0.20;;
2464;SDS011;1244;54.326;10.074;2023-03-26T18:42:46;0.20;;;0.20;;
2464;SDS011;1244;54.326;10.074;2023-03-26T18:45:29;0.20;;;0.20;;
2464;SDS011;1244;54.326;10.074;2023-03-26T18:47:58;0.20;;;0.20;;
2464;SDS011;1244;54.326;10.074;2023-03-26T18:50:26;0.10;;;0.10;;
2464;SDS011;1244;54.326;10.074;2023-03-26T18:52:55;0.20;;;0.20;;
2464;SDS011;1244;54.326;10.074;2023-03-26T18:55:25;0.20;;;0.20;;
2464;SDS011;1244;54.326;10.074;2023-03-26T18:58:15;0.20;;;0.20;;
2464;SDS011;1244;54.326;10.074;2023-03-26T19:00:49;0.20;;;0.20;;
2464;SDS011;1244;54.326;10.074;2023-03-26T19:03:20;0.20;;;0.20;;
2464;SDS011;1244;54.326;10.074;2023-03-26T19:06:10;0.20;;;0.20;;
2464;SDS011;1244;54.326;10.074;2023-03-26T19:08:36;0.20;;;0.20;;
2464;SDS011;1244;54.326;10.074;2023-03-26T19:11:07;0.13;;;0.13;;
2464;SDS011;1244;54.326;10.074;2023-03-26T19:13:35;0.20;;;0.20;;
2464;SDS011;1244;54.326;10.074;2023-03-26T19:16:07;0.20;;;0.20;;
2464;SDS011;1244;54.326;10.074;2023-03-26T19:18:43;0.20;;;0.20;;
2464;SDS011;1244;54.326;10.074;2023-03-26T19:21:08;0.20;;;0.20;;
2464;SDS011;1244;54.326;10.074;2023-03-26T19:23:38;0.20;;;0.20;;
2464;SDS011;1244;54.326;10.074;2023-03-26T19:26:12;0.20;;;0.20;;
2464;SDS011;1244;54.326;10.074;2023-03-26T19:28:40;0.20;;;0.20;;
2464;SDS011;1244;54.326;10.074;2023-03-26T19:31:23;0.20;;;0.20;;
2464;SDS011;1244;54.326;10.074;2023-03-26T19:36:51;0.20;;;0.20;;
2464;SDS011;1244;54.326;10.074;2023-03-26T19:39:24;0.20;;;0.20;;
2464;SDS011;1244;54.326;10.074;2023-03-26T19:42:22;0.17;;;0.17;;
2464;SDS011;1244;54.326;10.074;2023-03-26T19:44:50;0.10;;;0.10;;
2464;SDS011;1244;54.326;10.074;2023-03-26T19:47:17;0.17;;;0.17;;
2464;SDS011;1244;54.326;10.074;2023-03-26T19:49:59;0.20;;;0.20;;
2464;SDS011;1244;54.326;10.074;2023-03-26T19:52:37;0.30;;;0.30;;
2464;SDS011;1244;54.326;10.074;2023-03-26T19:55:21;0.20;;;0.20;;
2464;SDS011;1244;54.326;10.074;2023-03-26T19:58:03;0.20;;;0.20;;
2464;SDS011;1244;54.326;10.074;2023-03-26T20:00:30;0.30;;;0.30;;
2464;SDS011;1244;54.326;10.074;2023-03-26T20:02:56;0.30;;;0.30;;
2464;SDS011;1244;54.326;10.074;2023-03-26T20:05:23;0.30;;;0.30;;
2464;SDS011;1244;54.326;10.074;2023-03-26T20:07:51;0.30;;;0.30;;
2464;SDS011;1244;54.326;10.074;2023-03-26T20:12:53;0.30;;;0.30;;
2464;SDS011;1244;54.326;10.074;2023-03-26T20:15:20;0.20;;;0.20;;
2464;SDS011;1244;54.326;10.074;2023-03-26T20:17:52;0.30;;;0.30;;
2464;SDS011;1244;54.326;10.074;2023-03-26T20:20:19;0.20;;;0.20;;
2464;SDS011;1244;54.326;10.074;2023-03-26T20:23:09;0.10;;;0.10;;
2464;SDS011;1244;54.326;10.074;2023-03-26T20:25:37;0.17;;;0.17;;
2464;SDS011;1244;54.326;10.074;2023-03-26T20:28:10;0.30;;;0.30;;
2464;SDS011;1244;54.326;10.074;2023-03-26T20:30:36;0.23;;;0.23;;
2464;SDS011;1244;54.326;10.074;2023-03-26T20:33:04;0.30;;;0.30;;
2464;SDS011;1244;54.326;10.074;2023-03-26T20:35:38;0.20;;;0.20;;
2464;SDS011;1244;54.326;10.074;2023-03-26T20:38:04;0.20;;;0.20;;
2464;SDS011;1244;54.326;10.074;2023-03-26T20:40:33;0.30;;;0.30;;
2464;SDS011;1244;54.326;10.074;2023-03-26T20:42:59;0.20;;;0.20;;
2464;SDS011;1244;54.326;10.074;2023-03-26T20:45:25;0.20;;;0.20;;
2464;SDS011;1244;54.326;10.074;2023-03-26T20:48:11;0.20;;;0.20;;
2464;SDS011;1244;54.326;10.074;2023-03-26T20:50:38;0.30;;;0.30;;
2464;SDS011;1244;54.326;10.074;2023-03-26T20:53:05;0.20;;;0.20;;
2464;SDS011;1244;54.326;10.074;2023-03-26T20:55:34;0.40;;;0.40;;
2464;SDS011;1244;54.326;10.074;2023-03-26T20:58:12;0.30;;;0.30;;
2464;SDS011;1244;54.326;10.074;2023-03-26T21:00:40;0.40;;;0.40;;
2464;SDS011;1244;54.326;10.074;2023-03-26T21:03:12;0.40;;;0.40;;
2464;SDS011;1244;54.326;10.074;2023-03-26T21:05:39;0.40;;;0.40;;
2464;SDS011;1244;54.326;10.074;2023-03-26T21:08:22;0.30;;;0.30;;
2464;SDS011;1244;54.326;10.074;2023-03-26T21:10:54;0.30;;;0.30;;
2464;SDS011;1244;54.326;10.074;2023-03-26T21:13:31;0.23;;;0.23;;
2464;SDS011;1244;54.326;10.074;2023-03-26T21:16:27;0.30;;;0.30;;
2464;SDS011;1244;54.326;10.074;2023-03-26T21:18:56;0.30;;;0.30;;